Fes, Morocco
Current Conditions -  °F | °C
As of 10:00 AM on Tuesday 21 Oct 2014 (Local Time) from GMFF Reporting Station
Clear Clear  
Wind Chill: 84°   Ceiling: Unl
Heat Index: 84°   Visibility: 6mi
Dew Point: 36°   Wind: 0mph
Humidity: 18%   Direction: NA
Pressure: 30.24"   Gusts: NA
Location:  34.05°N, 5°W
Report Text: GMFF 210900Z 00000KT CAVOK 29/02 Q1024 NOSIG
Loading
Personal Weather Stations






























Interactive Weather Map
Tropical Storm Tracking
New forecast layout! Learn more

10-Day Weather Forecast

Advertisements
Track Severe Weather on mobile